Time;durP1;ratioP1;P1;durP2;ratioP2;P2;SDS_P1;SDS_P2;PMS_P1;PMS_P2;Temp;Humidity;BMP_temperature;BMP_pressure;BME280_temperature;BME280_humidity;BME280_pressure;Samples;Min_cycle;Max_cycle;Signal;HPM_P1;HPM_P2
2021/09/25 00:06:46;;;;;;;8.33;4.90;;;11.40;99.90;;;;;;20648691;28;20026;-77
2021/09/25 00:16:47;;;;;;;8.60;5.47;;;11.30;99.90;;;;;;20650451;28;20038;-77
2021/09/25 00:26:48;;;;;;;8.47;5.17;;;11.30;99.90;;;;;;20642106;28;20046;-77
2021/09/25 00:36:48;;;;;;;7.13;5.07;;;11.30;99.90;;;;;;20637904;28;20138;-77
2021/09/25 00:46:49;;;;;;;8.40;5.47;;;11.40;99.90;;;;;;20688992;28;20442;-78
2021/09/25 00:56:50;;;;;;;7.37;5.00;;;11.50;99.90;;;;;;20717225;28;20037;-77
2021/09/25 01:06:51;;;;;;;8.57;5.40;;;11.40;99.90;;;;;;20726458;28;20026;-77
2021/09/25 01:16:52;;;;;;;10.40;5.67;;;11.40;99.90;;;;;;20713770;28;20045;-77
2021/09/25 01:26:53;;;;;;;8.10;5.10;;;11.40;99.90;;;;;;20755283;28;20061;-77
2021/09/25 01:36:54;;;;;;;9.63;5.83;;;11.40;99.90;;;;;;20733893;28;20113;-77
2021/09/25 01:46:56;;;;;;;7.67;5.37;;;11.20;99.90;;;;;;20750858;28;20408;-77
2021/09/25 01:56:57;;;;;;;12.02;6.32;;;11.30;99.90;;;;;;20750087;28;20034;-78
2021/09/25 02:06:58;;;;;;;10.13;6.90;;;11.30;99.90;;;;;;20749365;28;20163;-77
2021/09/25 02:16:59;;;;;;;10.10;5.60;;;11.10;99.90;;;;;;20748891;28;20030;-77
2021/09/25 02:27:01;;;;;;;8.63;5.40;;;11.00;99.90;;;;;;20749134;28;20061;-77
2021/09/25 02:37:04;;;;;;;9.82;6.35;;;11.10;99.90;;;;;;20761506;28;20042;-77
2021/09/25 02:47:05;;;;;;;12.10;6.38;;;10.70;99.90;;;;;;20746765;28;20040;-77
2021/09/25 02:57:06;;;;;;;11.97;7.27;;;10.60;99.90;;;;;;20729007;28;20125;-77
2021/09/25 03:07:08;;;;;;;9.47;6.03;;;10.60;99.90;;;;;;20745326;28;20563;-77
2021/09/25 03:17:08;;;;;;;;;;;10.70;99.90;;;;;;20745269;28;20038;-77
2021/09/25 03:27:09;;;;;;;11.70;6.82;;;10.70;99.90;;;;;;20756325;28;19914;-77
2021/09/25 03:37:10;;;;;;;18.20;7.17;;;10.60;99.90;;;;;;20743401;28;20069;-77
2021/09/25 03:47:11;;;;;;;13.97;7.13;;;10.60;99.90;;;;;;20743019;28;20026;-77
2021/09/25 03:57:12;;;;;;;13.50;6.67;;;10.50;99.90;;;;;;20740635;28;20107;-77
2021/09/25 04:07:13;;;;;;;11.67;7.47;;;10.50;99.90;;;;;;20758396;28;20603;-77
2021/09/25 04:17:13;;;;;;;13.43;8.03;;;10.40;99.90;;;;;;20757592;28;20083;-77
2021/09/25 04:27:14;;;;;;;11.60;7.47;;;10.40;99.90;;;;;;20757521;28;20040;-77
2021/09/25 04:37:15;;;;;;;12.30;6.93;;;10.60;99.90;;;;;;20756024;28;20033;-77
2021/09/25 04:47:16;;;;;;;15.67;7.43;;;10.70;99.90;;;;;;20756118;28;20221;-77
2021/09/25 04:57:17;;;;;;;11.70;6.87;;;10.60;99.90;;;;;;20759672;28;20117;-77
2021/09/25 05:07:18;;;;;;;11.87;7.07;;;10.50;99.90;;;;;;20720006;28;20033;-77
2021/09/25 05:17:18;;;;;;;10.27;6.43;;;10.40;99.90;;;;;;20753947;28;20033;-77
2021/09/25 05:27:19;;;;;;;11.30;6.90;;;10.40;99.90;;;;;;20752541;28;20037;-77
2021/09/25 05:37:20;;;;;;;10.77;6.60;;;10.20;99.90;;;;;;20752061;28;20041;-76
2021/09/25 05:47:22;;;;;;;12.43;7.93;;;10.20;99.90;;;;;;20761949;28;20404;-76
2021/09/25 05:57:23;;;;;;;13.57;7.47;;;10.40;99.90;;;;;;20748940;28;20038;-76
2021/09/25 06:07:24;;;;;;;16.53;7.47;;;10.50;99.90;;;;;;20749331;28;20060;-77
2021/09/25 06:17:25;;;;;;;13.07;6.90;;;10.90;99.90;;;;;;20732010;28;20428;-78
2021/09/25 06:27:26;;;;;;;9.80;6.20;;;11.40;99.90;;;;;;20755411;28;20030;-80
2021/09/25 06:37:27;;;;;;;14.00;7.03;;;12.00;99.90;;;;;;20736020;28;20030;-79
2021/09/25 06:47:27;;;;;;;15.07;7.97;;;12.00;99.90;;;;;;20755368;28;20026;-78
2021/09/25 06:57:29;;;;;;;10.97;6.90;;;12.40;99.90;;;;;;20747662;28;20556;-78
2021/09/25 07:07:30;;;;;;;13.02;6.22;;;13.30;99.90;;;;;;20713947;28;20120;-79
2021/09/25 07:17:32;;;;;;;14.63;5.77;;;14.10;99.90;;;;;;20723773;28;20411;-80
2021/09/25 07:27:33;;;;;;;;;;;14.50;99.90;;;;;;20745515;28;20038;-78
2021/09/25 07:37:34;;;;;;;12.20;6.45;;;14.80;99.90;;;;;;20766243;28;19910;-78
2021/09/25 07:47:36;;;;;;;11.77;7.43;;;14.60;99.90;;;;;;20750829;28;20033;-77
2021/09/25 07:57:38;;;;;;;9.75;6.70;;;14.90;99.90;;;;;;20770727;28;20073;-78
2021/09/25 08:07:39;;;;;;;11.63;7.53;;;15.60;99.90;;;;;;20767257;28;20034;-78
2021/09/25 08:17:41;;;;;;;11.70;7.27;;;16.10;99.90;;;;;;20778105;28;20034;-78
2021/09/25 08:27:43;;;;;;;10.50;6.47;;;17.40;99.90;;;;;;20767623;28;20041;-78
2021/09/25 08:37:44;;;;;;;12.45;6.10;;;18.10;99.90;;;;;;20803333;28;20113;-78
2021/09/25 08:47:45;;;;;;;;;;;18.70;99.90;;;;;;20814081;28;20531;-78
2021/09/25 08:57:46;;;;;;;12.15;7.53;;;18.90;99.90;;;;;;20767506;28;19914;-79
2021/09/25 09:07:47;;;;;;;9.17;6.17;;;20.00;99.90;;;;;;20760999;28;20033;-80
2021/09/25 09:17:48;;;;;;;10.97;7.40;;;20.50;99.90;;;;;;20778782;28;20041;-80
2021/09/25 09:27:49;;;;;;;14.97;8.27;;;21.40;99.90;;;;;;20774468;28;20026;-80
2021/09/25 09:37:58;;;;;;;17.63;8.10;;;21.80;99.90;;;;;;20757180;28;20159;-79
2021/09/25 09:47:59;;;;;;;13.90;8.38;;;21.90;99.90;;;;;;20748308;28;20032;-80
2021/09/25 09:58:02;;;;;;;10.13;7.53;;;22.50;99.90;;;;;;20748981;28;20038;-79
2021/09/25 10:08:03;;;;;;;17.02;8.50;;;22.70;99.90;;;;;;20749698;28;20407;-78
2021/09/25 10:18:04;;;;;;;12.30;7.85;;;21.00;99.90;;;;;;20769212;28;20041;-80
2021/09/25 10:28:23;;;;;;;11.17;7.93;;;21.30;99.90;;;;;;20766508;28;20028;-80
2021/09/25 10:38:35;;;;;;;9.90;7.80;;;21.90;99.90;;;;;;20771361;28;20045;-79
2021/09/25 10:48:49;;;;;;;15.45;7.65;;;21.60;99.90;;;;;;20663554;28;20034;-80
2021/09/25 10:58:58;;;;;;;10.93;7.10;;;22.60;99.90;;;;;;20643314;28;20030;-79
2021/09/25 11:09:13;;;;;;;8.25;6.18;;;22.30;99.90;;;;;;20661252;28;20038;-78
2021/09/25 11:19:26;;;;;;;11.38;6.60;;;23.60;99.90;;;;;;20643532;28;20046;-80
2021/09/25 11:29:27;;;;;;;8.60;5.65;;;25.00;99.90;;;;;;20662401;28;20125;-80
2021/09/25 11:39:34;;;;;;;8.77;4.95;;;26.20;99.90;;;;;;20665704;28;20046;-78
2021/09/25 11:49:35;;;;;;;6.03;4.55;;;26.50;99.90;;;;;;20665270;28;20040;-79
2021/09/25 11:59:36;;;;;;;5.90;4.15;;;26.70;99.90;;;;;;20624921;28;20539;-81
2021/09/25 12:09:40;;;;;;;7.70;4.22;;;27.50;99.90;;;;;;20700385;28;20102;-80
2021/09/25 12:19:46;;;;;;;7.65;3.42;;;27.60;99.90;;;;;;20688422;28;20037;-79
2021/09/25 12:29:47;;;;;;;7.13;4.22;;;27.20;99.90;;;;;;20723495;28;20037;-80
2021/09/25 12:39:50;;;;;;;9.10;4.68;;;27.10;99.90;;;;;;20718196;28;20026;-81
2021/09/25 12:49:51;;;;;;;7.10;4.63;;;26.30;99.90;;;;;;20720671;28;20034;-78
2021/09/25 13:00:00;;;;;;;6.05;4.47;;;25.60;99.90;;;;;;20727774;28;20042;-81
2021/09/25 13:10:04;;;;;;;6.82;3.70;;;25.30;99.90;;;;;;20750373;28;20065;-80
2021/09/25 13:20:11;;;;;;;6.05;3.20;;;26.90;99.90;;;;;;20747798;28;20373;-81
2021/09/25 13:30:13;;;;;;;6.38;3.90;;;26.60;99.90;;;;;;20731781;28;20582;-79
2021/09/25 13:40:14;;;;;;;5.00;2.95;;;26.80;99.90;;;;;;20673238;28;20085;-80
2021/09/25 13:50:16;;;;;;;6.35;3.22;;;27.60;99.90;;;;;;20639945;28;20050;-80
2021/09/25 14:00:17;;;;;;;9.45;2.95;;;26.90;99.90;;;;;;20656916;28;20049;-80
2021/09/25 14:10:18;;;;;;;13.43;4.60;;;27.40;99.90;;;;;;20668495;28;20454;-79
2021/09/25 14:20:19;;;;;;;4.57;3.17;;;26.30;99.90;;;;;;20639039;28;20553;-78
2021/09/25 14:30:20;;;;;;;5.00;2.80;;;27.40;99.90;;;;;;20655886;28;20070;-80
2021/09/25 14:40:21;;;;;;;4.78;2.85;;;28.40;99.90;;;;;;20617003;28;20125;-80
2021/09/25 14:50:22;;;;;;;10.20;3.10;;;28.70;99.90;;;;;;20650370;28;20118;-79
2021/09/25 15:00:27;;;;;;;5.00;2.55;;;27.30;99.90;;;;;;20633577;28;20402;-78
2021/09/25 15:10:27;;;;;;;4.90;3.53;;;26.50;99.90;;;;;;20668581;28;20044;-78
2021/09/25 15:20:28;;;;;;;4.88;3.10;;;25.40;99.90;;;;;;20680852;28;20034;-79
2021/09/25 15:30:29;;;;;;;4.95;3.00;;;25.20;99.90;;;;;;20664939;28;20092;-80
2021/09/25 15:40:30;;;;;;;8.30;3.50;;;24.90;99.90;;;;;;20672546;28;20034;-79
2021/09/25 15:50:31;;;;;;;;;;;23.90;99.90;;;;;;20736031;28;20089;-82
2021/09/25 16:00:32;;;;;;;7.88;3.85;;;23.50;99.90;;;;;;20741332;28;19918;-80
2021/09/25 16:10:33;;;;;;;;;;;23.30;99.90;;;;;;20684462;28;20149;-78
2021/09/25 16:20:33;;;;;;;8.70;3.77;;;23.30;99.90;;;;;;20681696;28;20285;-79
2021/09/25 16:30:34;;;;;;;8.50;3.80;;;22.00;99.90;;;;;;20698150;28;20272;-79
2021/09/25 16:40:35;;;;;;;6.70;4.07;;;21.60;99.90;;;;;;20682622;28;20026;-79
2021/09/25 16:50:36;;;;;;;6.67;3.77;;;21.30;99.90;;;;;;20582348;28;20045;-79
2021/09/25 17:00:37;;;;;;;7.60;4.20;;;21.10;99.90;;;;;;20582195;28;20062;-80
2021/09/25 17:10:38;;;;;;;9.77;4.23;;;21.70;99.90;;;;;;20582207;28;20375;-82
2021/09/25 17:20:39;;;;;;;7.23;4.40;;;21.30;99.90;;;;;;20619284;28;20109;-82
2021/09/25 17:30:40;;;;;;;6.45;4.30;;;20.60;99.90;;;;;;20679984;28;20041;-82
2021/09/25 17:40:41;;;;;;;5.83;4.43;;;19.80;99.90;;;;;;20702601;28;20022;-82
2021/09/25 17:50:43;;;;;;;6.30;3.97;;;19.30;99.90;;;;;;20674984;28;20041;-81
2021/09/25 18:00:44;;;;;;;6.38;4.22;;;19.80;99.90;;;;;;20725555;28;20037;-82
2021/09/25 18:10:45;;;;;;;7.20;4.80;;;19.80;99.90;;;;;;20715323;28;20033;-80
2021/09/25 18:20:46;;;;;;;5.20;4.03;;;19.60;99.90;;;;;;20678477;28;20289;-81
2021/09/25 18:30:47;;;;;;;6.17;4.40;;;19.30;99.90;;;;;;20699082;28;20163;-79
2021/09/25 18:40:48;;;;;;;10.13;4.40;;;19.20;99.90;;;;;;20668003;28;20030;-81
2021/09/25 18:50:51;;;;;;;9.00;4.37;;;19.00;99.90;;;;;;20666978;28;20088;-80
2021/09/25 19:00:52;;;;;;;9.18;5.18;;;19.20;99.90;;;;;;20660194;28;20038;-79
2021/09/25 19:10:54;;;;;;;9.68;5.00;;;18.90;99.90;;;;;;20635943;28;20034;-78
2021/09/25 19:20:54;;;;;;;6.22;4.90;;;18.50;99.90;;;;;;20592591;28;20489;-79
2021/09/25 19:30:55;;;;;;;10.33;6.00;;;18.10;99.90;;;;;;20619415;28;20050;-80
2021/09/25 19:40:57;;;;;;;8.30;5.77;;;18.00;99.90;;;;;;20609014;28;20035;-77
2021/09/25 19:50:58;;;;;;;10.43;5.65;;;18.30;99.90;;;;;;20652800;28;20033;-81
2021/09/25 20:00:59;;;;;;;9.57;5.10;;;18.30;99.90;;;;;;20703927;28;20489;-79
2021/09/25 20:11:04;;;;;;;9.63;5.70;;;18.30;99.90;;;;;;20625243;28;20026;-82
2021/09/25 20:21:05;;;;;;;9.25;5.50;;;18.30;99.90;;;;;;20661501;28;20034;-82
2021/09/25 20:31:10;;;;;;;14.85;6.43;;;18.30;99.90;;;;;;20684792;28;20093;-82
2021/09/25 20:41:11;;;;;;;8.80;5.72;;;18.20;99.90;;;;;;20725087;28;20034;-80
2021/09/25 20:51:12;;;;;;;12.37;5.90;;;17.80;99.90;;;;;;20708908;28;20044;-79
2021/09/25 21:01:14;;;;;;;16.33;6.23;;;17.40;99.90;;;;;;20722479;28;20397;-81
2021/09/25 21:11:16;;;;;;;13.02;5.00;;;17.20;99.90;;;;;;20673616;28;20041;-79
2021/09/25 21:21:17;;;;;;;10.85;5.93;;;17.10;99.90;;;;;;20676265;28;20567;-79
2021/09/25 21:31:19;;;;;;;11.70;5.37;;;17.10;99.90;;;;;;20635836;28;20190;-81
2021/09/25 21:41:19;;;;;;;12.23;6.88;;;17.20;99.90;;;;;;20636476;28;20030;-80
2021/09/25 21:51:21;;;;;;;8.70;5.60;;;17.10;99.90;;;;;;20732932;28;20041;-79
2021/09/25 22:01:23;;;;;;;7.87;5.43;;;17.20;99.90;;;;;;20732920;28;20609;-81
2021/09/25 22:11:24;;;;;;;11.30;5.53;;;17.20;99.90;;;;;;20712080;28;20038;-80
2021/09/25 22:21:25;;;;;;;10.57;6.10;;;17.20;99.90;;;;;;20711576;28;20504;-81
2021/09/25 22:31:26;;;;;;;;;;;17.30;99.90;;;;;;20729309;28;20041;-79
2021/09/25 22:41:27;;;;;;;14.57;7.03;;;17.30;99.90;;;;;;20664350;28;20571;-79
2021/09/25 22:51:28;;;;;;;11.87;7.37;;;17.40;99.90;;;;;;20641227;28;20320;-82
2021/09/25 23:01:29;;;;;;;12.50;6.57;;;17.50;99.90;;;;;;20651139;28;20039;-81
2021/09/25 23:11:30;;;;;;;12.17;7.73;;;17.40;99.90;;;;;;20678982;28;20113;-83
2021/09/25 23:21:30;;;;;;;15.63;6.80;;;17.40;99.90;;;;;;20690036;28;20034;-81
2021/09/25 23:31:31;;;;;;;11.93;5.83;;;17.30;99.90;;;;;;20743984;28;20033;-80
2021/09/25 23:41:32;;;;;;;13.63;5.83;;;17.30;99.90;;;;;;20746397;28;20045;-80
2021/09/25 23:51:33;;;;;;;10.37;6.33;;;17.30;99.90;;;;;;20768311;28;20456;-79
